Etusivu
METAR-TAF:

METAR-TAF

Lentoasemat :

Caen, Ranska

Leveyspiiri: 49-11N, Pituuspiiri: 000-27W, korkeus merenpinnasta: 78 m

Tämänhetkinen sää

Tämä raportti tehtiin 24 minuuttia sitten, kello 15.00 UTC
Tuuli 7 kn pohjoisesta, vaihdellen pohjoisen/luoteen ja idän/koillisen välillä
Lämpötila 6°C
Kosteus 61%
Ilmanpaine 1023 hPa
Näkyvyys 10 km tai enemmän
ei pilviä alle 1500 m:ssä eikä cumulonimbus-pilviä

METAR: LFRK 081500Z AUTO 36007KT 330V060 CAVOK 06/M01 Q1023 NOSIG

Aika: 16:24 (15:24 UTC)

Sääennuste

Tämä raportti tehtiin 1 tunti ja 24 minuuttia sitten, kello 14.00 UTC
Ennuste voimassa 08. päivästä klo 15 UTC - 08. päivään klo 24 UTC
Tuuli 8 kn pohjoisesta
Näkyvyys 10 km tai enemmän
ei pilviä alle 1500 m:ssä eikä cumulonimbus-pilviä

TAF: LFRK 081400Z 0815/0824 35008KT CAVOK

Säähavainnot ja -ennusteet yli 4000 lentoasemalta (METAR- ja TAF-raportit).

Käytössä olevat sääasemat on merkitty karttaan keltaisilla ja punaisilla pisteillä.

Aseta hiiri pisteen päälle nähdäksesi sääaseman nimen.

Klikkaa sitten nähdäksesi säähavainnot ja -ennusteet.

Kartan vaihtaminen: klikkaa mustalla rastilla varustettuja vihreitä pisteitä, niin voit zoomata sisään; viivalla varustettua vihreää pistettä, niin voit zoomata ulos tai vihreitä nuolia, niin pääset viereisille kartoille.


METAR-TAF: